sensor_id;sensor_type;location;lat;lon;timestamp;temperature;humidity
1385;DHT22;686;51.080;13.716;2022-07-23T00:01:59;22.70;99.90
1385;DHT22;686;51.080;13.716;2022-07-23T00:04:25;22.70;99.90
1385;DHT22;686;51.080;13.716;2022-07-23T00:06:50;22.70;99.90
1385;DHT22;686;51.080;13.716;2022-07-23T00:09:16;22.70;99.90
1385;DHT22;686;51.080;13.716;2022-07-23T00:11:42;22.60;99.90
1385;DHT22;686;51.080;13.716;2022-07-23T00:14:08;22.50;99.90
1385;DHT22;686;51.080;13.716;2022-07-23T00:16:33;22.40;99.90
1385;DHT22;686;51.080;13.716;2022-07-23T00:18:59;22.30;99.90
1385;DHT22;686;51.080;13.716;2022-07-23T00:21:27;22.40;99.90
1385;DHT22;686;51.080;13.716;2022-07-23T00:23:53;22.30;99.90
1385;DHT22;686;51.080;13.716;2022-07-23T00:26:18;22.30;99.90
1385;DHT22;686;51.080;13.716;2022-07-23T00:28:44;22.30;99.90
1385;DHT22;686;51.080;13.716;2022-07-23T00:31:10;22.20;99.90
1385;DHT22;686;51.080;13.716;2022-07-23T00:33:36;22.20;99.90
1385;DHT22;686;51.080;13.716;2022-07-23T00:36:02;22.10;99.90
1385;DHT22;686;51.080;13.716;2022-07-23T00:38:28;22.10;99.90
1385;DHT22;686;51.080;13.716;2022-07-23T00:40:53;22.00;99.90
1385;DHT22;686;51.080;13.716;2022-07-23T00:43:23;21.90;99.90
1385;DHT22;686;51.080;13.716;2022-07-23T00:45:49;21.80;99.90
1385;DHT22;686;51.080;13.716;2022-07-23T00:48:15;21.80;99.90
1385;DHT22;686;51.080;13.716;2022-07-23T00:50:42;21.80;99.90
1385;DHT22;686;51.080;13.716;2022-07-23T00:53:07;21.70;99.90
1385;DHT22;686;51.080;13.716;2022-07-23T00:55:34;21.70;99.90
1385;DHT22;686;51.080;13.716;2022-07-23T00:58:01;21.80;99.90
1385;DHT22;686;51.080;13.716;2022-07-23T01:00:28;21.70;99.90
1385;DHT22;686;51.080;13.716;2022-07-23T01:02:54;21.70;99.90
1385;DHT22;686;51.080;13.716;2022-07-23T01:05:20;21.70;99.90
1385;DHT22;686;51.080;13.716;2022-07-23T01:07:51;21.70;99.90
1385;DHT22;686;51.080;13.716;2022-07-23T01:10:17;21.70;99.90
1385;DHT22;686;51.080;13.716;2022-07-23T01:13:07;21.70;99.90
1385;DHT22;686;51.080;13.716;2022-07-23T01:15:35;21.70;99.90
1385;DHT22;686;51.080;13.716;2022-07-23T01:18:03;21.80;99.90
1385;DHT22;686;51.080;13.716;2022-07-23T01:20:29;21.80;99.90
1385;DHT22;686;51.080;13.716;2022-07-23T01:22:55;21.90;99.90
1385;DHT22;686;51.080;13.716;2022-07-23T01:25:22;21.90;99.90
1385;DHT22;686;51.080;13.716;2022-07-23T01:27:48;21.90;99.90
1385;DHT22;686;51.080;13.716;2022-07-23T01:30:15;21.90;99.90
1385;DHT22;686;51.080;13.716;2022-07-23T01:32:41;21.80;99.90
1385;DHT22;686;51.080;13.716;2022-07-23T01:35:07;21.80;99.90
1385;DHT22;686;51.080;13.716;2022-07-23T01:37:34;21.70;99.90
1385;DHT22;686;51.080;13.716;2022-07-23T01:40:00;21.70;99.90
1385;DHT22;686;51.080;13.716;2022-07-23T01:42:25;21.60;99.90
1385;DHT22;686;51.080;13.716;2022-07-23T01:44:51;21.50;99.90
1385;DHT22;686;51.080;13.716;2022-07-23T01:47:17;21.50;99.90
1385;DHT22;686;51.080;13.716;2022-07-23T01:49:43;21.30;99.90
1385;DHT22;686;51.080;13.716;2022-07-23T01:52:09;21.30;99.90
1385;DHT22;686;51.080;13.716;2022-07-23T01:54:37;21.30;99.90
1385;DHT22;686;51.080;13.716;2022-07-23T01:57:05;21.30;99.90
1385;DHT22;686;51.080;13.716;2022-07-23T01:59:32;21.20;99.90
1385;DHT22;686;51.080;13.716;2022-07-23T02:01:58;21.20;99.90
1385;DHT22;686;51.080;13.716;2022-07-23T02:04:25;21.10;99.90
1385;DHT22;686;51.080;13.716;2022-07-23T02:06:52;21.10;99.90
1385;DHT22;686;51.080;13.716;2022-07-23T02:09:18;21.10;99.90
1385;DHT22;686;51.080;13.716;2022-07-23T02:11:44;21.00;99.90
1385;DHT22;686;51.080;13.716;2022-07-23T02:14:10;21.00;99.90
1385;DHT22;686;51.080;13.716;2022-07-23T02:16:35;21.20;99.90
1385;DHT22;686;51.080;13.716;2022-07-23T02:19:02;21.20;99.90
1385;DHT22;686;51.080;13.716;2022-07-23T02:21:28;21.20;99.90
1385;DHT22;686;51.080;13.716;2022-07-23T02:23:54;21.20;99.90
1385;DHT22;686;51.080;13.716;2022-07-23T02:26:20;21.10;99.90
1385;DHT22;686;51.080;13.716;2022-07-23T02:28:46;21.10;99.90
1385;DHT22;686;51.080;13.716;2022-07-23T02:31:11;21.10;99.90
1385;DHT22;686;51.080;13.716;2022-07-23T02:33:37;21.20;99.90
1385;DHT22;686;51.080;13.716;2022-07-23T02:36:03;21.20;99.90
1385;DHT22;686;51.080;13.716;2022-07-23T02:38:29;21.10;99.90
1385;DHT22;686;51.080;13.716;2022-07-23T02:40:54;21.20;99.90
1385;DHT22;686;51.080;13.716;2022-07-23T02:43:20;21.10;99.90
1385;DHT22;686;51.080;13.716;2022-07-23T02:45:46;21.20;99.90
1385;DHT22;686;51.080;13.716;2022-07-23T02:48:11;21.10;99.90
1385;DHT22;686;51.080;13.716;2022-07-23T02:50:40;21.00;99.90
1385;DHT22;686;51.080;13.716;2022-07-23T02:53:06;21.00;99.90
1385;DHT22;686;51.080;13.716;2022-07-23T02:55:32;20.90;99.90
1385;DHT22;686;51.080;13.716;2022-07-23T02:57:57;20.80;99.90
1385;DHT22;686;51.080;13.716;2022-07-23T03:00:23;20.70;99.90
1385;DHT22;686;51.080;13.716;2022-07-23T03:02:49;20.60;99.90
1385;DHT22;686;51.080;13.716;2022-07-23T03:05:15;20.70;99.90
1385;DHT22;686;51.080;13.716;2022-07-23T03:07:42;20.70;99.90
1385;DHT22;686;51.080;13.716;2022-07-23T03:10:08;20.80;99.90
1385;DHT22;686;51.080;13.716;2022-07-23T03:12:34;20.80;99.90
1385;DHT22;686;51.080;13.716;2022-07-23T03:15:00;20.80;99.90
1385;DHT22;686;51.080;13.716;2022-07-23T03:17:25;20.90;99.90
1385;DHT22;686;51.080;13.716;2022-07-23T03:19:51;20.90;99.90
1385;DHT22;686;51.080;13.716;2022-07-23T03:22:17;20.80;99.90
1385;DHT22;686;51.080;13.716;2022-07-23T03:24:42;20.80;99.90
1385;DHT22;686;51.080;13.716;2022-07-23T03:27:22;20.80;99.90
1385;DHT22;686;51.080;13.716;2022-07-23T03:29:48;20.70;99.90
1385;DHT22;686;51.080;13.716;2022-07-23T03:32:14;20.80;99.90
1385;DHT22;686;51.080;13.716;2022-07-23T03:34:40;20.70;99.90
1385;DHT22;686;51.080;13.716;2022-07-23T03:37:05;20.70;99.90
1385;DHT22;686;51.080;13.716;2022-07-23T03:39:31;20.70;99.90
1385;DHT22;686;51.080;13.716;2022-07-23T03:41:57;20.80;99.90
1385;DHT22;686;51.080;13.716;2022-07-23T03:44:23;20.80;99.90
1385;DHT22;686;51.080;13.716;2022-07-23T03:46:49;20.80;99.90
1385;DHT22;686;51.080;13.716;2022-07-23T03:49:14;20.80;99.90
1385;DHT22;686;51.080;13.716;2022-07-23T03:51:40;20.80;99.90
1385;DHT22;686;51.080;13.716;2022-07-23T03:54:06;20.70;99.90
1385;DHT22;686;51.080;13.716;2022-07-23T03:56:32;20.70;99.90
1385;DHT22;686;51.080;13.716;2022-07-23T03:58:57;20.80;99.90
1385;DHT22;686;51.080;13.716;2022-07-23T04:01:23;20.90;99.90
1385;DHT22;686;51.080;13.716;2022-07-23T04:03:49;20.90;99.90
1385;DHT22;686;51.080;13.716;2022-07-23T04:06:15;20.90;99.90
1385;DHT22;686;51.080;13.716;2022-07-23T04:08:40;21.00;99.90
1385;DHT22;686;51.080;13.716;2022-07-23T04:11:06;20.90;99.90
1385;DHT22;686;51.080;13.716;2022-07-23T04:13:32;20.70;99.90
1385;DHT22;686;51.080;13.716;2022-07-23T04:15:58;20.80;99.90
1385;DHT22;686;51.080;13.716;2022-07-23T04:18:24;20.70;99.90
1385;DHT22;686;51.080;13.716;2022-07-23T04:20:53;20.70;99.90
1385;DHT22;686;51.080;13.716;2022-07-23T04:23:19;20.60;99.90
1385;DHT22;686;51.080;13.716;2022-07-23T04:25:45;20.60;99.90
1385;DHT22;686;51.080;13.716;2022-07-23T04:28:11;20.70;99.90
1385;DHT22;686;51.080;13.716;2022-07-23T04:30:36;20.70;99.90
1385;DHT22;686;51.080;13.716;2022-07-23T04:33:03;20.70;99.90
1385;DHT22;686;51.080;13.716;2022-07-23T04:35:32;20.70;99.90
1385;DHT22;686;51.080;13.716;2022-07-23T04:37:58;20.80;99.90
1385;DHT22;686;51.080;13.716;2022-07-23T04:40:25;20.80;99.90
1385;DHT22;686;51.080;13.716;2022-07-23T04:42:51;21.00;99.90
1385;DHT22;686;51.080;13.716;2022-07-23T04:45:17;21.00;99.90
1385;DHT22;686;51.080;13.716;2022-07-23T04:47:42;21.00;99.90
1385;DHT22;686;51.080;13.716;2022-07-23T04:50:08;21.00;99.90
1385;DHT22;686;51.080;13.716;2022-07-23T04:52:34;21.00;99.90
1385;DHT22;686;51.080;13.716;2022-07-23T04:55:00;20.60;99.90
1385;DHT22;686;51.080;13.716;2022-07-23T04:57:26;20.50;99.90
1385;DHT22;686;51.080;13.716;2022-07-23T04:59:51;20.60;99.90
1385;DHT22;686;51.080;13.716;2022-07-23T05:02:17;20.70;99.90
1385;DHT22;686;51.080;13.716;2022-07-23T05:04:43;20.70;99.90
1385;DHT22;686;51.080;13.716;2022-07-23T05:07:09;20.80;99.90
1385;DHT22;686;51.080;13.716;2022-07-23T05:09:38;20.70;99.90
1385;DHT22;686;51.080;13.716;2022-07-23T05:12:04;20.80;99.90
1385;DHT22;686;51.080;13.716;2022-07-23T05:14:30;20.90;99.90
1385;DHT22;686;51.080;13.716;2022-07-23T05:16:55;21.10;99.90
1385;DHT22;686;51.080;13.716;2022-07-23T05:19:21;21.20;99.90
1385;DHT22;686;51.080;13.716;2022-07-23T05:21:47;21.20;99.90
1385;DHT22;686;51.080;13.716;2022-07-23T05:24:13;21.20;99.90
1385;DHT22;686;51.080;13.716;2022-07-23T05:26:39;21.20;99.90
1385;DHT22;686;51.080;13.716;2022-07-23T05:29:04;21.00;99.90
1385;DHT22;686;51.080;13.716;2022-07-23T05:31:30;21.00;99.90
1385;DHT22;686;51.080;13.716;2022-07-23T05:33:56;21.20;99.90
1385;DHT22;686;51.080;13.716;2022-07-23T05:36:22;21.30;99.90
1385;DHT22;686;51.080;13.716;2022-07-23T05:38:48;21.30;99.90
1385;DHT22;686;51.080;13.716;2022-07-23T05:41:13;21.50;99.90
1385;DHT22;686;51.080;13.716;2022-07-23T05:43:39;21.30;99.90
1385;DHT22;686;51.080;13.716;2022-07-23T05:46:05;21.20;99.90
1385;DHT22;686;51.080;13.716;2022-07-23T05:48:31;20.90;99.90
1385;DHT22;686;51.080;13.716;2022-07-23T05:50:57;20.90;99.90
1385;DHT22;686;51.080;13.716;2022-07-23T05:53:22;20.70;99.90
1385;DHT22;686;51.080;13.716;2022-07-23T05:55:48;20.60;99.90
1385;DHT22;686;51.080;13.716;2022-07-23T05:58:14;20.50;99.90
1385;DHT22;686;51.080;13.716;2022-07-23T06:00:40;20.50;99.90
1385;DHT22;686;51.080;13.716;2022-07-23T06:03:05;20.50;99.90
1385;DHT22;686;51.080;13.716;2022-07-23T06:05:31;20.40;99.90
1385;DHT22;686;51.080;13.716;2022-07-23T06:07:57;20.30;99.90
1385;DHT22;686;51.080;13.716;2022-07-23T06:10:23;20.20;99.90
1385;DHT22;686;51.080;13.716;2022-07-23T06:12:49;20.30;99.90
1385;DHT22;686;51.080;13.716;2022-07-23T06:15:15;20.30;99.90
1385;DHT22;686;51.080;13.716;2022-07-23T06:17:40;20.50;99.90
1385;DHT22;686;51.080;13.716;2022-07-23T06:20:08;20.60;99.90
1385;DHT22;686;51.080;13.716;2022-07-23T06:22:34;20.50;99.90
1385;DHT22;686;51.080;13.716;2022-07-23T06:25:00;20.30;99.90
1385;DHT22;686;51.080;13.716;2022-07-23T06:27:26;20.10;99.90
1385;DHT22;686;51.080;13.716;2022-07-23T06:29:52;20.30;99.90
